^^
Grace C. Lehan Memorial Weather Station Historical Data
Daily Summary for May 16, 2022 Units:  Metric    English   Both
Daily Weekly Monthly Yearly
  High: Low: Average:
Temperature: 23.7 °C 9.5 °C 17.1 °C
Dew Point: 12.7 °C 7.6 °C 9.8 °C
Humidity: 90% 44.7% 65%
Wind Speed: 5.6km/h 0km/h 1.1km/h
Wind Gust: 22.5km/h - -
Wind- - WNW
Pressure: 1021.6 hPa 1018.2 hPa -
Precipitation: 0 mm    
 
 
Tabular Data for May 16, 2022
Time Temperature Dew Point Pressure Wind Wind Speed Wind Gust Humidity Rainfall Rate (Hourly) solar
00:09 14.5 °C 8.2 °C 1020.9 hPa Calm     66% 0 mm 0 W/m2
00:14 14.4 °C 8.3 °C 1020.9 hPa Calm     66.8% 0 mm 0 W/m2
00:19 14.3 °C 8.4 °C 1020.9 hPa Calm     67.6% 0 mm 0 W/m2
00:24 14.2 °C 8.3 °C 1020.9 hPa Calm     68% 0 mm 0 W/m2
00:29 14 °C 8.2 °C 1020.9 hPa Calm     68% 0 mm 0 W/m2
00:34 13.9 °C 8.2 °C 1020.9 hPa Calm     68.5% 0 mm 0 W/m2
00:39 13.8 °C 8.3 °C 1020.9 hPa Calm     69.6% 0 mm 0 W/m2
00:44 13.6 °C 8.3 °C 1020.9 hPa Calm     70.1% 0 mm 0 W/m2
00:49 13.4 °C 8.3 °C 1020.9 hPa Calm     71% 0 mm 0 W/m2
00:54 13.3 °C 8.4 °C 1020.9 hPa Calm     72% 0 mm 0 W/m2
00:59 13.2 °C 8.4 °C 1020.9 hPa Calm     73% 0 mm 0 W/m2
01:04 13.1 °C 8.4 °C 1020.9 hPa Calm     73.3% 0 mm 0 W/m2
01:09 12.9 °C 8.4 °C 1020.9 hPa Calm     74% 0 mm 0 W/m2
01:14 12.8 °C 8.3 °C 1020.9 hPa Calm     74.3% 0 mm 0 W/m2
01:19 12.7 °C 8.4 °C 1020.9 hPa Calm     75% 0 mm 0 W/m2
01:24 12.6 °C 8.4 °C 1020.9 hPa Calm     75.8% 0 mm 0 W/m2
01:29 12.4 °C 8.5 °C 1020.9 hPa Calm     77% 0 mm 0 W/m2
01:34 12.3 °C 8.5 °C 1020.9 hPa Calm     77.6% 0 mm 0 W/m2
01:39 12.2 °C 8.6 °C 1020.9 hPa Calm     78.4% 0 mm 0 W/m2
01:40 12.2 °C 8.7 °C 1020.9 hPa Calm     79% 0 mm 0 W/m2
02:00 11.8 °C 8.4 °C 1020.5 hPa Calm     80% 0 mm 0 W/m2
02:30 11.4 °C 8.6 °C 1020.5 hPa Calm     83% 0 mm 0 W/m2
03:00 10.9 °C 8.3 °C 1020.2 hPa Calm     84% 0 mm 0 W/m2
03:30 10.6 °C 8.2 °C 1020.5 hPa Calm     85% 0 mm 0 W/m2
04:04 10.3 °C 8.1 °C 1020.2 hPa Calm     86% 0 mm 0 W/m2
04:09 10.3 °C 8 °C 1020.2 hPa Calm     85.5% 0 mm 0 W/m2
04:14 10.3 °C 7.9 °C 1020.2 hPa Calm     85% 0 mm 0 W/m2
04:19 10.3 °C 7.9 °C 1020.2 hPa Calm     85% 0 mm 0 W/m2
04:24 10.3 °C 7.9 °C 1020.2 hPa Calm     85% 0 mm 0 W/m2
04:29 10.4 °C 8 °C 1020.2 hPa Calm     85% 0 mm 0 W/m2
04:34 10.3 °C 7.9 °C 1020.5 hPa Calm   1.6 km/h 85% 0 mm 0 W/m2
04:39 10.3 °C 7.9 °C 1020.5 hPa Calm   1.6 km/h 85% 0 mm 0 W/m2
04:44 10.3 °C 7.9 °C 1020.5 hPa Calm   1.6 km/h 85% 0 mm 0 W/m2
04:49 10.3 °C 7.9 °C 1020.5 hPa Calm   1.6 km/h 85% 0 mm 0 W/m2
04:54 10.3 °C 7.9 °C 1020.5 hPa Calm   1.6 km/h 85% 0 mm 0 W/m2
04:59 10.3 °C 7.9 °C 1020.5 hPa Calm   1.6 km/h 85% 0 mm 0 W/m2
05:04 10.3 °C 7.8 °C 1020.5 hPa Calm   1.6 km/h 85% 0 mm 0 W/m2
05:09 10.2 °C 7.8 °C 1020.5 hPa Calm     85% 0 mm 0 W/m2
05:14 10.2 °C 7.7 °C 1020.5 hPa Calm   1.6 km/h 84.4% 0 mm 0 W/m2
05:19 10.2 °C 7.8 °C 1020.5 hPa Calm   3.2 km/h 85% 0 mm 0 W/m2
05:24 10.2 °C 7.8 °C 1020.5 hPa Calm   3.2 km/h 85% 0 mm 0 W/m2
05:29 10.2 °C 7.8 °C 1020.5 hPa Calm   3.2 km/h 85% 0 mm 0 W/m2
05:34 10.3 °C 7.8 °C 1020.5 hPa Calm   3.2 km/h 84.8% 0 mm 0 W/m2
05:39 10.3 °C 7.7 °C 1020.5 hPa Calm   1.6 km/h 84% 0 mm 0 W/m2
05:44 10.3 °C 7.8 °C 1020.5 hPa Calm   1.6 km/h 84.1% 0 mm 0 W/m2
05:49 10.3 °C 7.8 °C 1020.5 hPa Calm   1.6 km/h 84.4% 0 mm 0 W/m2
05:54 10.3 °C 7.8 °C 1020.5 hPa Calm   1.6 km/h 85% 0 mm 0 W/m2
05:59 10.2 °C 7.8 °C 1020.5 hPa Calm   1.6 km/h 85% 0 mm 0 W/m2
06:04 10.1 °C 7.7 °C 1020.5 hPa Calm   1.6 km/h 85% 0 mm 0 W/m2
06:09 10.1 °C 7.8 °C 1020.5 hPa Calm     85.9% 0 mm 0 W/m2
06:14 10 °C 7.8 °C 1020.5 hPa Calm     86% 0 mm 0 W/m2
06:19 9.9 °C 7.7 °C 1020.5 hPa Calm     86% 0 mm 0 W/m2
06:24 9.9 °C 7.8 °C 1020.9 hPa Calm     87% 0 mm 0 W/m2
06:29 9.8 °C 7.8 °C 1020.9 hPa Calm     87% 0 mm 0 W/m2
06:34 9.8 °C 7.7 °C 1020.9 hPa Calm     87% 0 mm 0 W/m2
06:39 9.7 °C 7.6 °C 1020.9 hPa Calm     87% 0 mm 7 W/m2
06:44 9.7 °C 7.6 °C 1020.9 hPa Calm     87% 0 mm 11 W/m2
06:49 9.6 °C 7.6 °C 1020.9 hPa Calm     87.5% 0 mm 16 W/m2
06:54 9.6 °C 7.6 °C 1020.9 hPa Calm     87.8% 0 mm 19 W/m2
06:59 9.5 °C 7.6 °C 1020.9 hPa Calm     88% 0 mm 25 W/m2
07:04 9.5 °C 7.6 °C 1020.9 hPa Calm     88% 0 mm 28 W/m2
07:09 9.5 °C 7.6 °C 1020.9 hPa Calm     88% 0 mm 33 W/m2
07:14 9.5 °C 7.6 °C 1020.9 hPa Calm     88.1% 0 mm 37 W/m2
07:19 9.6 °C 7.8 °C 1021.2 hPa Calm     89% 0 mm 40 W/m2
07:24 9.6 °C 7.8 °C 1021.2 hPa Calm     89% 0 mm 44 W/m2
07:29 9.7 °C 7.9 °C 1021.2 hPa Calm     89% 0 mm 49 W/m2
07:34 9.8 °C 8.2 °C 1021.2 hPa Calm     90% 0 mm 51 W/m2
07:39 9.9 °C 8.3 °C 1021.2 hPa Calm     90% 0 mm 54 W/m2
07:44 10 °C 8.4 °C 1021.2 hPa Calm     90% 0 mm 58 W/m2
07:49 10.1 °C 8.6 °C 1021.2 hPa Calm     90% 0 mm 60 W/m2
07:54 10.2 °C 8.5 °C 1021.2 hPa Calm     89.1% 0 mm 62 W/m2
07:59 10.3 °C 8.6 °C 1021.2 hPa Calm     89% 0 mm 63 W/m2
08:04 10.6 °C 8.8 °C 1021.2 hPa Calm     89% 0 mm 69 W/m2
08:09 10.6 °C 8.8 °C 1021.2 hPa Calm     88.5% 0 mm 72 W/m2
08:14 10.8 °C 8.8 °C 1021.6 hPa Calm     88% 0 mm 76 W/m2
08:19 10.9 °C 8.9 °C 1021.6 hPa Calm     87.5% 0 mm 81 W/m2
08:24 11.2 °C 9.1 °C 1021.6 hPa Calm     87% 0 mm 90 W/m2
08:29 11.3 °C 9.2 °C 1021.6 hPa Calm     86.6% 0 mm 100 W/m2
08:34 11.6 °C 9.3 °C 1021.6 hPa Calm     86% 0 mm 109 W/m2
08:39 11.8 °C 9.4 °C 1021.6 hPa Calm     85.5% 0 mm 111 W/m2
08:44 12.1 °C 9.6 °C 1021.6 hPa Calm     84.5% 0 mm 128 W/m2
08:49 12.4 °C 9.7 °C 1021.6 hPa Calm     83.7% 0 mm 346 W/m2
08:54 12.8 °C 9.7 °C 1021.6 hPa Calm     81.8% 0 mm 387 W/m2
08:59 13.2 °C 10 °C 1021.6 hPa Calm     80.7% 0 mm 397 W/m2
09:04 13.7 °C 10 °C 1021.6 hPa Calm     78.2% 0 mm 415 W/m2
09:09 14.5 °C 10 °C 1021.6 hPa Calm     74.6% 0 mm 431 W/m2
09:14 15.2 °C 10.3 °C 1021.6 hPa Calm     72.2% 0 mm 455 W/m2
09:19 16 °C 10.1 °C 1021.6 hPa Calm   3.2 km/h 67.9% 0 mm 476 W/m2
09:24 16.7 °C 9.9 °C 1021.6 hPa NW 1.4 km/h 4.8 km/h 64% 0 mm 485 W/m2
09:29 17.3 °C 9.3 °C 1021.6 hPa Calm   4.8 km/h 59.2% 0 mm 510 W/m2
09:34 17.8 °C 9.8 °C 1021.6 hPa NW 0.5 km/h 4.8 km/h 59.8% 0 mm 564 W/m2
09:39 18.2 °C 9.7 °C 1021.6 hPa Calm   4.8 km/h 57.7% 0 mm 643 W/m2
09:44 18.5 °C 9.9 °C 1021.6 hPa Calm   4.8 km/h 57.2% 0 mm 552 W/m2
09:49 18.7 °C 9.4 °C 1021.6 hPa WNW 1.6 km/h 9.7 km/h 54.8% 0 mm 626 W/m2
09:54 18.8 °C 9.5 °C 1021.6 hPa WNW 0.3 km/h 9.7 km/h 54.9% 0 mm 599 W/m2
09:59 19 °C 9.8 °C 1021.2 hPa WNW 0.2 km/h 9.7 km/h 55.2% 0 mm 605 W/m2
10:04 19.2 °C 9.8 °C 1021.2 hPa WNW 0.5 km/h 9.7 km/h 54.3% 0 mm 617 W/m2
10:09 19.5 °C 9.9 °C 1021.2 hPa WNW 0.5 km/h 4.8 km/h 53.9% 0 mm 619 W/m2
10:14 19.7 °C 9.9 °C 1021.2 hPa WNW 2.9 km/h 9.7 km/h 53.3% 0 mm 629 W/m2
10:19 19.8 °C 9.9 °C 1021.2 hPa WNW 0.2 km/h 9.7 km/h 52.9% 0 mm 638 W/m2
10:24 20.1 °C 10.7 °C 1021.2 hPa WNW 0.2 km/h 9.7 km/h 54.7% 0 mm 656 W/m2
10:29 20.3 °C 10.7 °C 1021.2 hPa WNW 0.2 km/h 9.7 km/h 53.9% 0 mm 663 W/m2
10:34 20.4 °C 10.8 °C 1021.2 hPa WNW 0.3 km/h 9.7 km/h 53.7% 0 mm 666 W/m2
10:39 20.6 °C 10.8 °C 1021.2 hPa West 1.6 km/h 9.7 km/h 53.4% 0 mm 679 W/m2
10:44 20.7 °C 10.5 °C 1021.2 hPa West 2.1 km/h 9.7 km/h 52.1% 0 mm 691 W/m2
10:49 20.8 °C 10.8 °C 1021.2 hPa WNW 0.2 km/h 9.7 km/h 52.8% 0 mm 693 W/m2
10:54 20.9 °C 10.9 °C 1021.2 hPa Calm   9.7 km/h 52.8% 0 mm 710 W/m2
10:59 21 °C 10.2 °C 1020.9 hPa WNW 1.9 km/h 9.7 km/h 50.2% 0 mm 721 W/m2
11:04 21.1 °C 10.3 °C 1021.2 hPa Calm   9.7 km/h 50% 0 mm 726 W/m2
11:09 21.3 °C 11 °C 1021.2 hPa Calm   1.6 km/h 51.8% 0 mm 735 W/m2
11:14 21.3 °C 10.2 °C 1021.2 hPa NW 1.3 km/h 6.4 km/h 48.9% 0 mm 738 W/m2
11:19 21.3 °C 10.1 °C 1021.2 hPa NNW 0.3 km/h 6.4 km/h 48.7% 0 mm 742 W/m2
11:24 21.4 °C 10.4 °C 1020.9 hPa NNW 0.2 km/h 6.4 km/h 49.8% 0 mm 745 W/m2
11:29 21.6 °C 10.5 °C 1020.9 hPa NNW 1.8 km/h 6.4 km/h 49.3% 0 mm 749 W/m2
11:34 21.7 °C 10.2 °C 1020.9 hPa WNW 1.8 km/h 9.7 km/h 47.8% 0 mm 605 W/m2
11:39 21.8 °C 10.2 °C 1020.9 hPa WNW 1.6 km/h 9.7 km/h 47.7% 0 mm 188 W/m2
11:44 21.5 °C 10.1 °C 1020.9 hPa Calm   9.7 km/h 48.1% 0 mm 160 W/m2
11:49 21.3 °C 9.9 °C 1020.9 hPa West 3.7 km/h 16.1 km/h 48.1% 0 mm 160 W/m2
11:54 21.1 °C 9.7 °C 1020.9 hPa West 1.6 km/h 16.1 km/h 47.9% 0 mm 120 W/m2
11:59 21.1 °C 10.3 °C 1020.9 hPa West 1.1 km/h 16.1 km/h 50.4% 0 mm 118 W/m2
12:00 21 °C 9.9 °C 1020.9 hPa Calm   16.1 km/h 49% 0 mm 104 W/m2
12:09 21 °C 10.1 °C 1020.5 hPa WNW 1.1 km/h 6.4 km/h 49.9% 0 mm 146 W/m2
12:14 20.9 °C 10.4 °C 1020.5 hPa WNW 0.2 km/h 6.4 km/h 51.1% 0 mm 163 W/m2
12:19 20.9 °C 10.9 °C 1020.2 hPa WNW 1.6 km/h 9.7 km/h 53% 0 mm 179 W/m2
12:24 21 °C 10.9 °C 1020.2 hPa West 1.6 km/h 9.7 km/h 52.4% 0 mm 287 W/m2
12:29 21.1 °C 11.3 °C 1020.2 hPa WNW 1.3 km/h 9.7 km/h 53.3% 0 mm 172 W/m2
12:34 21.3 °C 10.8 °C 1020.2 hPa NNW 1.8 km/h 9.7 km/h 51.1% 0 mm 257 W/m2
12:39 21.2 °C 10.6 °C 1020.2 hPa NNW 1.4 km/h 9.7 km/h 50.6% 0 mm 257 W/m2
12:44 21.2 °C 10.3 °C 1020.2 hPa WNW 3.9 km/h 14.5 km/h 49.8% 0 mm 146 W/m2
12:49 21.2 °C 10.6 °C 1020.2 hPa NNW 1.8 km/h 14.5 km/h 50.6% 0 mm 90 W/m2
12:54 21.2 °C 10.1 °C 1020.2 hPa Calm   14.5 km/h 49.2% 0 mm 84 W/m2
12:59 21.1 °C 9.6 °C 1020.2 hPa NNE 0.5 km/h 14.5 km/h 47.8% 0 mm 299 W/m2
13:04 21.1 °C 10.1 °C 1020.2 hPa NW 2.6 km/h 14.5 km/h 49.4% 0 mm 156 W/m2
13:09 21.2 °C 10.1 °C 1019.9 hPa WNW 2.3 km/h 12.9 km/h 49.1% 0 mm 114 W/m2
13:14 21.3 °C 9.4 °C 1019.9 hPa NW 1.8 km/h 12.9 km/h 46.7% 0 mm 114 W/m2
13:19 21.3 °C 8.8 °C 1019.9 hPa NNW 1.4 km/h 17.7 km/h 44.7% 0 mm 91 W/m2
13:24 21.4 °C 9.2 °C 1019.5 hPa NNW 0.5 km/h 17.7 km/h 45.8% 0 mm 70 W/m2
13:29 21.4 °C 9.2 °C 1019.5 hPa NNW 0.8 km/h 17.7 km/h 45.6% 0 mm 76 W/m2
13:34 21.6 °C 9.9 °C 1019.5 hPa WSW 0.8 km/h 17.7 km/h 47.5% 0 mm 81 W/m2
13:39 21.7 °C 9.4 °C 1019.5 hPa West 1.8 km/h 11.3 km/h 45.6% 0 mm 86 W/m2
13:44 21.7 °C 9.8 °C 1019.5 hPa West 1.3 km/h 11.3 km/h 46.5% 0 mm 69 W/m2
13:49 21.8 °C 10 °C 1019.5 hPa WSW 1.3 km/h 11.3 km/h 46.9% 0 mm 63 W/m2
13:54 21.9 °C 10 °C 1019.5 hPa NW 1.8 km/h 11.3 km/h 46.7% 0 mm 65 W/m2
13:59 22 °C 10.4 °C 1019.2 hPa NW 2.6 km/h 11.3 km/h 47.8% 0 mm 67 W/m2
14:04 21.9 °C 10.3 °C 1019.2 hPa NW 5.5 km/h 16.1 km/h 47.6% 0 mm 95 W/m2
14:09 22 °C 10.7 °C 1018.8 hPa WNW 2.3 km/h 16.1 km/h 48.6% 0 mm 74 W/m2
14:14 22 °C 10.6 °C 1018.8 hPa WNW 2.3 km/h 16.1 km/h 48.4% 0 mm 70 W/m2
14:19 22 °C 10.7 °C 1018.8 hPa WNW 2.7 km/h 16.1 km/h 48.5% 0 mm 234 W/m2
14:24 22 °C 10.7 °C 1018.8 hPa West 3.4 km/h 16.1 km/h 48.7% 0 mm 561 W/m2
14:29 22.1 °C 11.1 °C 1018.8 hPa West 4.7 km/h 16.1 km/h 49.5% 0 mm 185 W/m2
14:34 22.2 °C 10.7 °C 1018.8 hPa WNW 3.7 km/h 16.1 km/h 48% 0 mm 104 W/m2
14:39 22.2 °C 10.9 °C 1018.8 hPa WNW 1.9 km/h 16.1 km/h 48.7% 0 mm 100 W/m2
14:44 22.3 °C 11 °C 1018.8 hPa WNW 2.6 km/h 16.1 km/h 48.8% 0 mm 475 W/m2
14:49 22.3 °C 10.9 °C 1018.5 hPa NW 3.4 km/h 17.7 km/h 48.2% 0 mm 503 W/m2
14:54 22.4 °C 10.8 °C 1018.5 hPa West 2.9 km/h 17.7 km/h 47.8% 0 mm 183 W/m2
14:59 22.4 °C 11.1 °C 1018.5 hPa WNW 3.4 km/h 17.7 km/h 48.8% 0 mm 568 W/m2
15:04 22.4 °C 11.4 °C 1018.5 hPa West 2.9 km/h 17.7 km/h 49.8% 0 mm 381 W/m2
15:09 22.5 °C 11.3 °C 1018.5 hPa WNW 5.3 km/h 17.7 km/h 49.1% 0 mm 264 W/m2
15:14 22.6 °C 11.2 °C 1018.5 hPa WNW 2.1 km/h 17.7 km/h 48.6% 0 mm 552 W/m2
15:19 22.7 °C 11.8 °C 1018.5 hPa West 2.4 km/h 17.7 km/h 50.2% 0 mm 606 W/m2
15:24 22.9 °C 11.8 °C 1018.5 hPa WNW 5.3 km/h 17.7 km/h 49.5% 0 mm 605 W/m2
15:29 23.1 °C 11.7 °C 1018.5 hPa West 4.8 km/h 17.7 km/h 48.5% 0 mm 594 W/m2
15:34 23.2 °C 11.7 °C 1018.2 hPa WSW 3.4 km/h 17.7 km/h 48.1% 0 mm 591 W/m2
15:39 23.4 °C 12.1 °C 1018.5 hPa West 1.9 km/h 14.5 km/h 48.8% 0 mm 580 W/m2
15:44 23.7 °C 12.4 °C 1018.5 hPa West 4.2 km/h 14.5 km/h 49.4% 0 mm 550 W/m2
15:49 23.7 °C 11.8 °C 1018.5 hPa WSW 4 km/h 14.5 km/h 47.3% 0 mm 538 W/m2
15:54 23.6 °C 12.1 °C 1018.5 hPa West 0.6 km/h 14.5 km/h 48.5% 0 mm 536 W/m2
15:59 23.5 °C 12.3 °C 1018.2 hPa WNW 5.3 km/h 14.5 km/h 49.5% 0 mm 54 W/m2
16:00 23.4 °C 12.1 °C 1018.2 hPa NNW 4.8 km/h 14.5 km/h 49% 0 mm 54 W/m2
16:09 23.2 °C 12.2 °C 1018.2 hPa West 0.6 km/h 4.8 km/h 49.8% 0 mm 54 W/m2
16:14 23.2 °C 12.3 °C 1018.5 hPa West 5.5 km/h 16.1 km/h 50.2% 0 mm 53 W/m2
16:19 23.2 °C 12 °C 1018.5 hPa WNW 1.9 km/h 16.1 km/h 49.4% 0 mm 51 W/m2
16:24 23.1 °C 12.3 °C 1018.5 hPa WNW 2.6 km/h 16.1 km/h 50.8% 0 mm 47 W/m2
16:29 23.1 °C 12.4 °C 1018.5 hPa WNW 3.5 km/h 17.7 km/h 51.3% 0 mm 46 W/m2
16:34 23.1 °C 12.5 °C 1018.5 hPa WNW 3.5 km/h 17.7 km/h 51.4% 0 mm 44 W/m2
16:39 23.1 °C 12.4 °C 1018.5 hPa NW 4.2 km/h 16.1 km/h 51.3% 0 mm 42 W/m2
16:44 23 °C 12.4 °C 1018.5 hPa WNW 2.7 km/h 16.1 km/h 51.5% 0 mm 40 W/m2
16:49 23 °C 12.3 °C 1018.5 hPa WNW 5.5 km/h 17.7 km/h 51% 0 mm 40 W/m2
16:54 22.9 °C 12.4 °C 1018.5 hPa WNW 2.6 km/h 17.7 km/h 51.4% 0 mm 39 W/m2
16:59 22.9 °C 12.7 °C 1018.5 hPa WNW 4.7 km/h 17.7 km/h 52.3% 0 mm 39 W/m2
17:04 22.9 °C 12.4 °C 1018.5 hPa WNW 2.6 km/h 17.7 km/h 51.6% 0 mm 39 W/m2
17:09 22.8 °C 12.4 °C 1018.5 hPa NW 2.6 km/h 14.5 km/h 51.9% 0 mm 37 W/m2
17:14 22.8 °C 12.4 °C 1018.5 hPa NW 4.7 km/h 19.3 km/h 52% 0 mm 35 W/m2
17:19 22.7 °C 12.3 °C 1018.5 hPa NW 3.7 km/h 19.3 km/h 52% 0 mm 33 W/m2
17:24 22.6 °C 12.2 °C 1018.5 hPa NW 3.5 km/h 19.3 km/h 51.8% 0 mm 33 W/m2
17:29 22.4 °C 12.2 °C 1018.5 hPa WNW 5.6 km/h 22.5 km/h 52.2% 0 mm 32 W/m2
17:34 22.3 °C 12.3 °C 1018.8 hPa WNW 3.5 km/h 22.5 km/h 52.9% 0 mm 32 W/m2
17:39 22.3 °C 12.3 °C 1018.8 hPa WNW 2.9 km/h 16.1 km/h 53.4% 0 mm 30 W/m2
17:44 22.2 °C 12.4 °C 1018.8 hPa WNW 3.9 km/h 16.1 km/h 53.8% 0 mm 28 W/m2
17:49 22.1 °C 12.2 °C 1018.8 hPa WNW 3.4 km/h 16.1 km/h 53.6% 0 mm 25 W/m2
17:54 21.9 °C 12.2 °C 1018.8 hPa WNW 3.5 km/h 17.7 km/h 54% 0 mm 23 W/m2
17:59 21.8 °C 12.4 °C 1018.8 hPa WNW 1.9 km/h 17.7 km/h 54.9% 0 mm 23 W/m2
18:04 21.7 °C 12.4 °C 1018.8 hPa WNW 0.5 km/h 17.7 km/h 55.3% 0 mm 21 W/m2
18:09 21.7 °C 12.7 °C 1018.8 hPa WNW 0.8 km/h 6.4 km/h 56.9% 0 mm 19 W/m2
18:14 21.5 °C 12.6 °C 1018.8 hPa WNW 2.3 km/h 11.3 km/h 56.7% 0 mm 18 W/m2
18:19 21.4 °C 12.6 °C 1018.8 hPa WNW 0.3 km/h 11.3 km/h 57% 0 mm 18 W/m2
18:24 21.3 °C 12.6 °C 1018.8 hPa WNW 0.2 km/h 11.3 km/h 57.3% 0 mm 16 W/m2
18:29 21.2 °C 12.7 °C 1019.2 hPa WNW 0.2 km/h 11.3 km/h 58% 0 mm 14 W/m2
18:34 21.2 °C 12.6 °C 1019.2 hPa WNW 0.3 km/h 11.3 km/h 58% 0 mm 12 W/m2
18:39 21.1 °C 12.6 °C 1019.2 hPa Calm   3.2 km/h 58.3% 0 mm 9 W/m2
18:44 20.9 °C 12.6 °C 1019.2 hPa Calm   3.2 km/h 59% 0 mm 7 W/m2
18:48 20.8 °C 12.5 °C 1019.2 hPa Calm   3.2 km/h 59% 0 mm 5 W/m2
Hartford County Weather
Compliments of Weather Underground - 4 mb